createdAt,value
2017-08-04T00:00:40.847Z,1003.12
2017-08-04T00:01:42.076Z,1003.1
2017-08-04T00:02:43.343Z,1003.06
2017-08-04T00:03:44.698Z,1003.09
2017-08-04T00:04:45.987Z,1003.02
2017-08-04T00:05:47.230Z,1003.02
2017-08-04T00:06:48.471Z,1003.01
2017-08-04T00:07:49.716Z,1003.07
2017-08-04T00:08:50.959Z,1003.11
2017-08-04T00:09:52.292Z,1003.06
2017-08-04T00:10:53.455Z,1003.11
2017-08-04T00:11:54.708Z,1003.08
2017-08-04T00:12:55.947Z,1003.1
2017-08-04T00:13:57.214Z,1003.1
2017-08-04T00:14:58.455Z,1003.1
2017-08-04T00:15:59.698Z,1003.12
2017-08-04T00:17:00.965Z,1003.08
2017-08-04T00:18:02.210Z,1003.1
2017-08-04T00:19:03.440Z,1003.13
2017-08-04T00:20:04.681Z,1003.11
2017-08-04T00:21:05.929Z,1003.13
2017-08-04T00:22:07.188Z,1003.11
2017-08-04T00:23:08.481Z,1003.1
2017-08-04T00:24:09.753Z,1003.11
2017-08-04T00:25:10.987Z,1003.15
2017-08-04T00:26:12.228Z,1003.09
2017-08-04T00:27:13.472Z,1003.09
2017-08-04T00:28:14.725Z,1003.11
2017-08-04T00:29:15.971Z,1003.13
2017-08-04T00:30:17.265Z,1003.13
2017-08-04T00:31:18.499Z,1003.11
2017-08-04T00:32:19.749Z,1003.09
2017-08-04T00:33:20.995Z,1003.12
2017-08-04T00:34:22.232Z,1003.09
2017-08-04T00:35:23.556Z,1003.07
2017-08-04T00:36:24.913Z,1003.11
2017-08-04T00:37:26.226Z,1003.11
2017-08-04T00:38:27.453Z,1003.08
2017-08-04T00:39:28.694Z,1003.11
2017-08-04T00:40:29.927Z,1003.12
2017-08-04T00:41:31.197Z,1003.14
2017-08-04T00:42:32.456Z,1003.12
2017-08-04T00:43:33.690Z,1003.12
2017-08-04T00:44:34.935Z,1003.15
2017-08-04T00:45:36.168Z,1003.11
2017-08-04T00:46:37.439Z,1003.08
2017-08-04T00:47:38.698Z,1003.14
2017-08-04T00:48:40.083Z,1003.13
2017-08-04T00:49:41.210Z,1003.17
2017-08-04T00:50:42.455Z,1003.14
2017-08-04T00:51:43.693Z,1003.14
2017-08-04T00:52:44.930Z,1003.15
2017-08-04T00:53:46.164Z,1003.11
2017-08-04T00:54:47.449Z,1003.08
2017-08-04T00:55:48.757Z,1003.16
2017-08-04T00:56:49.991Z,1003.14
2017-08-04T00:57:51.231Z,1003.15
2017-08-04T00:58:52.468Z,1003.14
2017-08-04T00:59:53.738Z,1003.11
2017-08-04T01:00:55.045Z,1003.11
2017-08-04T01:01:56.294Z,1003.08
2017-08-04T01:02:57.548Z,1003.09
2017-08-04T01:03:58.765Z,1003.06
2017-08-04T01:05:00.005Z,1003.1
2017-08-04T01:06:01.248Z,1003.08
2017-08-04T01:07:02.600Z,1003.14
2017-08-04T01:08:03.733Z,1003.11
2017-08-04T01:09:04.978Z,1003.13
2017-08-04T01:10:06.221Z,1003.07
2017-08-04T01:11:07.476Z,1003.11
2017-08-04T01:12:08.715Z,1003.16
2017-08-04T01:13:09.956Z,1003.12
2017-08-04T01:14:11.195Z,1003.15
2017-08-04T01:15:12.468Z,1003.11
2017-08-04T01:16:13.726Z,1003.12
2017-08-04T01:17:14.940Z,1003.16
2017-08-04T01:18:16.171Z,1003.15
2017-08-04T01:19:17.421Z,1003.12
2017-08-04T01:20:18.662Z,1003.14
2017-08-04T01:21:19.906Z,1003.16
2017-08-04T01:22:21.205Z,1003.17
2017-08-04T01:23:22.445Z,1003.18
2017-08-04T01:24:23.681Z,1003.15
2017-08-04T01:25:24.924Z,1003.14
2017-08-04T01:26:26.180Z,1003.17
2017-08-04T01:27:27.415Z,1003.17
2017-08-04T01:28:28.782Z,1003.18
2017-08-04T01:29:30.017Z,1003.2
2017-08-04T01:30:31.258Z,1003.17
2017-08-04T01:31:32.509Z,1003.18
2017-08-04T01:32:33.740Z,1003.11
2017-08-04T01:33:35.078Z,1003.08
2017-08-04T01:34:36.330Z,1003.11
2017-08-04T01:35:37.565Z,1003.07
2017-08-04T01:36:38.804Z,1003.12
2017-08-04T01:37:40.024Z,1003.07
2017-08-04T01:38:41.332Z,1003.04
2017-08-04T01:39:42.579Z,1003.04
2017-08-04T01:40:43.820Z,1003.03
2017-08-04T01:41:45.152Z,1002.99
2017-08-04T01:42:46.391Z,1003.04
2017-08-04T01:43:47.646Z,1003.02
2017-08-04T01:44:48.867Z,1003.02
2017-08-04T01:45:50.109Z,1002.97
2017-08-04T01:46:51.406Z,1002.99
2017-08-04T01:47:52.715Z,1002.97
2017-08-04T01:48:53.958Z,1002.94
2017-08-04T01:49:55.192Z,1002.99
2017-08-04T01:50:56.432Z,1002.97
2017-08-04T01:51:57.680Z,1002.9
2017-08-04T01:52:59.058Z,1002.94
2017-08-04T01:54:00.286Z,1002.92
2017-08-04T01:55:01.520Z,1002.89
2017-08-04T01:56:02.757Z,1002.88
2017-08-04T01:57:04.002Z,1002.89
2017-08-04T01:58:05.295Z,1002.91
2017-08-04T01:59:06.615Z,1002.92
2017-08-04T02:00:07.899Z,1002.93
2017-08-04T02:01:09.104Z,1002.95
2017-08-04T02:02:10.391Z,1002.95
2017-08-04T02:03:11.621Z,1002.93
2017-08-04T02:04:12.858Z,1002.93
2017-08-04T02:05:14.107Z,1002.92
2017-08-04T02:06:15.416Z,1002.97
2017-08-04T02:07:16.655Z,1002.98
2017-08-04T02:08:17.900Z,1002.96
2017-08-04T02:09:19.129Z,1002.97
2017-08-04T02:10:20.364Z,1003
2017-08-04T02:11:21.714Z,1003.07
2017-08-04T02:12:22.961Z,1003.04
2017-08-04T02:13:24.201Z,1003.05
2017-08-04T02:14:25.446Z,1003.04
2017-08-04T02:15:26.682Z,1003.06
2017-08-04T02:16:27.937Z,1003.07
2017-08-04T02:17:29.170Z,1003.07
2017-08-04T02:18:30.462Z,1003.08
2017-08-04T02:19:31.699Z,1003.12
2017-08-04T02:20:32.941Z,1003.15
2017-08-04T02:21:34.171Z,1003.12
2017-08-04T02:22:35.406Z,1003.13
2017-08-04T02:23:36.639Z,1003.16
2017-08-04T02:24:37.872Z,1003.17
2017-08-04T02:25:39.278Z,1003.2
2017-08-04T02:26:40.502Z,1003.16
2017-08-04T02:27:41.746Z,1003.15
2017-08-04T02:28:42.970Z,1003.17
2017-08-04T02:29:44.209Z,1003.17
2017-08-04T02:30:45.457Z,1003.15
2017-08-04T02:31:46.766Z,1003.12
2017-08-04T02:32:48.095Z,1003.14
2017-08-04T02:33:49.354Z,1003.15
2017-08-04T02:34:50.577Z,1003.08
2017-08-04T02:35:51.817Z,1003.07
2017-08-04T02:36:53.062Z,1003.05
2017-08-04T02:37:54.392Z,1003.08
2017-08-04T02:38:55.621Z,1003.08
2017-08-04T02:39:56.889Z,1003.08
2017-08-04T02:40:58.131Z,1003.06
2017-08-04T02:41:59.366Z,1003
2017-08-04T02:43:00.604Z,1003.05
2017-08-04T02:44:01.838Z,1003.02
2017-08-04T02:45:03.185Z,1003.06
2017-08-04T02:46:04.454Z,1003.09
2017-08-04T02:47:05.696Z,1003.03
2017-08-04T02:48:06.948Z,1003.05
2017-08-04T02:49:08.181Z,1003.08
2017-08-04T02:50:09.514Z,1003.02
2017-08-04T02:51:10.835Z,1003.07
2017-08-04T02:52:12.068Z,1003.06
2017-08-04T02:53:13.309Z,1003.03
2017-08-04T02:54:14.540Z,1003.09
2017-08-04T02:55:15.779Z,1003.07
2017-08-04T02:56:17.024Z,1003
2017-08-04T02:57:18.341Z,1003
2017-08-04T02:58:19.570Z,1002.98
2017-08-04T02:59:20.815Z,1002.97
2017-08-04T03:00:22.050Z,1002.98
2017-08-04T03:01:23.287Z,1002.95
2017-08-04T03:02:24.533Z,1002.96
2017-08-04T03:03:25.760Z,1003.01
2017-08-04T03:04:27.018Z,1003.06
2017-08-04T03:05:28.250Z,1003.02
2017-08-04T03:06:29.479Z,1003.03
2017-08-04T03:07:30.718Z,1003.06
2017-08-04T03:08:31.950Z,1003.08
2017-08-04T03:09:33.204Z,1003.07
2017-08-04T03:10:34.520Z,1003.03
2017-08-04T03:11:35.768Z,1002.99
2017-08-04T03:12:37.013Z,1002.97
2017-08-04T03:13:38.250Z,1003.01
2017-08-04T03:14:39.499Z,1003.07
2017-08-04T03:15:40.742Z,1003.04
2017-08-04T03:16:41.977Z,1003.02
2017-08-04T03:17:43.242Z,1003.06
2017-08-04T03:18:44.488Z,1003.04
2017-08-04T03:19:45.730Z,1003.04
2017-08-04T03:20:46.963Z,1003.06
2017-08-04T03:21:48.206Z,1003.04
2017-08-04T03:22:49.437Z,1002.98
2017-08-04T03:23:50.672Z,1003.06
2017-08-04T03:24:52.019Z,1003.01
2017-08-04T03:25:53.267Z,1002.99
2017-08-04T03:26:54.691Z,1003.05
2017-08-04T03:27:55.930Z,1003
2017-08-04T03:28:57.206Z,1002.96
2017-08-04T03:29:58.437Z,1003
2017-08-04T03:30:59.677Z,1002.96
2017-08-04T03:32:00.908Z,1003
2017-08-04T03:33:02.160Z,1002.94
2017-08-04T03:34:03.448Z,1003.03
2017-08-04T03:35:04.749Z,1002.99
2017-08-04T03:36:05.986Z,1003.08
2017-08-04T03:37:07.222Z,1003.06
2017-08-04T03:38:08.452Z,1003.07
2017-08-04T03:39:09.723Z,1003.06
2017-08-04T03:40:10.932Z,1003.05
2017-08-04T03:41:12.175Z,1003.05
2017-08-04T03:42:13.451Z,1003.01
2017-08-04T03:43:14.760Z,1003.04
2017-08-04T03:44:16.046Z,1003.05
2017-08-04T03:45:17.286Z,1003.05
2017-08-04T03:46:18.525Z,1002.98
2017-08-04T03:47:19.882Z,1003
2017-08-04T03:48:21.144Z,1003
2017-08-04T03:49:22.394Z,1002.98
2017-08-04T03:50:23.629Z,1003.03
2017-08-04T03:51:24.872Z,1003
2017-08-04T03:52:26.111Z,1003.06
2017-08-04T03:53:27.390Z,1003.04
2017-08-04T03:54:28.654Z,1003.12
2017-08-04T03:55:29.876Z,1003.09
2017-08-04T03:56:31.207Z,1003.07
2017-08-04T03:57:32.448Z,1003.1
2017-08-04T03:58:33.679Z,1003.01
2017-08-04T03:59:34.927Z,1003.04
2017-08-04T04:00:36.161Z,1003.1
2017-08-04T04:01:37.404Z,1003.11
2017-08-04T04:02:38.660Z,1003.04
2017-08-04T04:03:39.902Z,1003.02
2017-08-04T04:04:41.143Z,1003.01
2017-08-04T04:05:42.400Z,1003.02
2017-08-04T04:06:43.649Z,1003.01
2017-08-04T04:07:44.882Z,1003
2017-08-04T04:08:46.166Z,1002.96
2017-08-04T04:09:47.367Z,1003
2017-08-04T04:10:48.648Z,1003.02
2017-08-04T04:11:49.883Z,1003
2017-08-04T04:12:51.140Z,1002.97
2017-08-04T04:13:52.352Z,1002.95
2017-08-04T04:14:53.622Z,1002.95
2017-08-04T04:15:54.875Z,1002.93
2017-08-04T04:16:56.124Z,1002.94
2017-08-04T04:17:57.368Z,1003.02
2017-08-04T04:18:58.606Z,1003.01
2017-08-04T04:19:59.859Z,1002.99
2017-08-04T04:21:01.088Z,1003.03
2017-08-04T04:22:02.340Z,1003.06
2017-08-04T04:23:03.598Z,1003
2017-08-04T04:24:04.868Z,1003.09
2017-08-04T04:25:06.102Z,1003.08
2017-08-04T04:26:07.343Z,1003.02
2017-08-04T04:27:08.712Z,1003.09
2017-08-04T04:28:09.860Z,1003.09
2017-08-04T04:29:11.195Z,1003.11
2017-08-04T04:30:12.408Z,1003.07
2017-08-04T04:31:13.647Z,1003.09
2017-08-04T04:32:14.887Z,1003.07
2017-08-04T04:33:16.121Z,1003.09
2017-08-04T04:34:17.355Z,1003.1
2017-08-04T04:35:18.683Z,1003.18
2017-08-04T04:36:19.905Z,1003.19
2017-08-04T04:37:21.142Z,1003.18
2017-08-04T04:38:22.383Z,1003.16
2017-08-04T04:39:23.703Z,1003.14
2017-08-04T04:40:25.079Z,1003.15
2017-08-04T04:41:26.322Z,1003.13
2017-08-04T04:42:27.559Z,1003.11
2017-08-04T04:43:28.796Z,1003.07
2017-08-04T04:44:30.029Z,1003.06
2017-08-04T04:45:31.267Z,1003.09
2017-08-04T04:46:32.505Z,1003.06
2017-08-04T04:47:33.746Z,1003.09
2017-08-04T04:48:34.975Z,1003.07
2017-08-04T04:49:36.376Z,1003.03
2017-08-04T04:50:37.601Z,1003.07
2017-08-04T04:51:38.851Z,1003.06
2017-08-04T04:52:40.091Z,1003.03
2017-08-04T04:53:41.349Z,1003
2017-08-04T04:54:42.631Z,1003
2017-08-04T04:55:43.881Z,1002.87
2017-08-04T04:56:45.112Z,1002.94
2017-08-04T04:57:46.361Z,1002.91
2017-08-04T04:58:47.658Z,1002.94
2017-08-04T04:59:49.087Z,1002.93
2017-08-04T05:00:50.373Z,1003.01
2017-08-04T05:01:51.617Z,1003.03
2017-08-04T05:02:52.856Z,1003.04
2017-08-04T05:03:54.095Z,1003.03
2017-08-04T05:04:55.340Z,1003.06
2017-08-04T05:05:56.593Z,1003.13
2017-08-04T05:06:57.867Z,1003.15
2017-08-04T05:07:59.091Z,1003.13
2017-08-04T05:09:00.356Z,1003.15
2017-08-04T05:10:01.569Z,1003.11
2017-08-04T05:11:02.910Z,1003.11
2017-08-04T05:12:04.033Z,1003.1
2017-08-04T05:13:05.328Z,1003.06
2017-08-04T05:14:06.586Z,1003
2017-08-04T05:15:07.824Z,1003.08
2017-08-04T05:16:09.059Z,1003
2017-08-04T05:17:10.301Z,1002.98
2017-08-04T05:18:11.532Z,1002.91
2017-08-04T05:19:12.889Z,1002.92
2017-08-04T05:20:14.213Z,1002.95
2017-08-04T05:21:15.455Z,1002.85
2017-08-04T05:22:16.699Z,1002.84
2017-08-04T05:23:17.958Z,1002.88
2017-08-04T05:24:19.296Z,1002.89
2017-08-04T05:25:20.556Z,1002.86
2017-08-04T05:26:21.799Z,1002.98
2017-08-04T05:27:23.092Z,1003
2017-08-04T05:28:24.334Z,1003.01
2017-08-04T05:29:25.673Z,1003.02
2017-08-04T05:30:26.920Z,1003.05
2017-08-04T05:31:28.175Z,1003.05
2017-08-04T05:32:29.402Z,1003.05
2017-08-04T05:33:30.642Z,1003.07
2017-08-04T05:34:31.883Z,1003.11
2017-08-04T05:35:33.119Z,1003.14
2017-08-04T05:36:34.352Z,1003.19
2017-08-04T05:37:35.607Z,1003.18
2017-08-04T05:38:36.954Z,1003.23
2017-08-04T05:39:38.230Z,1003.28
2017-08-04T05:40:39.468Z,1003.24
2017-08-04T05:41:40.706Z,1003.19
2017-08-04T05:42:41.944Z,1003.24
2017-08-04T05:43:43.259Z,1003.2
2017-08-04T05:44:44.508Z,1003.21
2017-08-04T05:45:45.753Z,1003.23
2017-08-04T05:46:46.988Z,1003.25
2017-08-04T05:47:48.225Z,1003.25
2017-08-04T05:48:49.508Z,1003.2
2017-08-04T05:49:50.810Z,1003.18
2017-08-04T05:50:51.994Z,1003.2
2017-08-04T05:51:53.333Z,1003.14
2017-08-04T05:52:54.750Z,1003.2
2017-08-04T05:53:55.991Z,1003.21
2017-08-04T05:54:57.282Z,1003.2
2017-08-04T05:55:58.619Z,1003.32
2017-08-04T05:56:59.754Z,1003.32
2017-08-04T05:58:01.027Z,1003.29
2017-08-04T05:59:02.397Z,1003.37
2017-08-04T06:00:03.627Z,1003.28
2017-08-04T06:01:04.874Z,1003.32
2017-08-04T06:02:06.132Z,1003.37
2017-08-04T06:03:07.435Z,1003.38
2017-08-04T06:04:08.669Z,1003.32
2017-08-04T06:05:09.939Z,1003.3
2017-08-04T06:06:11.183Z,1003.32
2017-08-04T06:07:12.433Z,1003.29
2017-08-04T06:08:13.777Z,1003.27
2017-08-04T06:09:15.027Z,1003.25
2017-08-04T06:10:16.253Z,1003.24
2017-08-04T06:11:17.498Z,1003.19
2017-08-04T06:12:18.786Z,1003.14
2017-08-04T06:13:20.026Z,1003.23
2017-08-04T06:14:21.304Z,1003.21
2017-08-04T06:15:22.617Z,1003.24
2017-08-04T06:16:23.920Z,1003.29
2017-08-04T06:17:25.115Z,1003.27
2017-08-04T06:18:26.362Z,1003.27
2017-08-04T06:19:27.706Z,1003.29
2017-08-04T06:20:28.964Z,1003.27
2017-08-04T06:21:30.201Z,1003.31
2017-08-04T06:22:31.438Z,1003.3
2017-08-04T06:23:32.673Z,1003.28
2017-08-04T06:24:33.916Z,1003.3
2017-08-04T06:25:35.158Z,1003.26
2017-08-04T06:26:36.396Z,1003.27
2017-08-04T06:27:37.641Z,1003.28
2017-08-04T06:28:39.000Z,1003.32
2017-08-04T06:29:40.257Z,1003.29
2017-08-04T06:30:41.490Z,1003.33
2017-08-04T06:31:42.731Z,1003.33
2017-08-04T06:32:43.971Z,1003.39
2017-08-04T06:33:45.219Z,1003.42
2017-08-04T06:34:46.479Z,1003.48
2017-08-04T06:35:47.734Z,1003.45
2017-08-04T06:36:48.957Z,1003.47
2017-08-04T06:37:50.194Z,1003.57
2017-08-04T06:38:51.440Z,1003.53
2017-08-04T06:39:52.684Z,1003.54
2017-08-04T06:40:53.975Z,1003.51
2017-08-04T06:41:55.275Z,1003.49
2017-08-04T06:42:56.520Z,1003.53
2017-08-04T06:43:57.760Z,1003.48
2017-08-04T06:44:59.001Z,1003.56
2017-08-04T06:46:00.239Z,1003.64
2017-08-04T06:47:01.488Z,1003.65
2017-08-04T06:48:02.806Z,1003.5
2017-08-04T06:49:04.109Z,1003.58
2017-08-04T06:50:05.351Z,1003.57
2017-08-04T06:51:06.597Z,1003.6
2017-08-04T06:52:07.834Z,1003.66
2017-08-04T06:53:09.295Z,1003.55
2017-08-04T06:54:10.638Z,1003.62
2017-08-04T06:55:11.867Z,1003.6
2017-08-04T06:56:13.097Z,1003.55
2017-08-04T06:57:14.349Z,1003.71
2017-08-04T06:58:15.594Z,1003.82
2017-08-04T06:59:16.943Z,1003.88
2017-08-04T07:00:18.229Z,1004.22
2017-08-04T07:01:19.425Z,1003.85
2017-08-04T07:02:20.675Z,1003.77
2017-08-04T07:03:21.919Z,1003.68
2017-08-04T07:04:23.234Z,1003.61
2017-08-04T07:05:24.506Z,1003.65
2017-08-04T07:06:25.742Z,1003.6
2017-08-04T07:07:27.026Z,1003.66
2017-08-04T07:08:28.275Z,1003.71
2017-08-04T07:09:29.513Z,1003.68
2017-08-04T07:10:30.761Z,1003.64
2017-08-04T07:11:32.022Z,1003.67
2017-08-04T07:12:33.288Z,1003.67
2017-08-04T07:13:34.539Z,1003.58
2017-08-04T07:14:35.779Z,1003.65
2017-08-04T07:15:37.028Z,1003.69
2017-08-04T07:16:38.269Z,1003.75
2017-08-04T07:17:39.548Z,1003.75
2017-08-04T07:18:40.790Z,1003.76
2017-08-04T07:19:42.025Z,1003.93
2017-08-04T07:20:43.286Z,1004.05
2017-08-04T07:21:44.528Z,1003.83
2017-08-04T07:22:45.778Z,1004.01
2017-08-04T07:23:47.024Z,1003.92
2017-08-04T07:24:48.279Z,1003.68
2017-08-04T07:25:49.636Z,1003.79
2017-08-04T07:26:50.913Z,1003.68
2017-08-04T07:27:52.186Z,1003.68
2017-08-04T07:28:53.437Z,1003.69
2017-08-04T07:29:54.692Z,1003.69
2017-08-04T07:30:56.004Z,1003.76
2017-08-04T07:31:57.354Z,1003.99
2017-08-04T07:32:58.603Z,1003.79
2017-08-04T07:33:59.846Z,1003.74
2017-08-04T07:35:01.110Z,1003.74
2017-08-04T07:36:02.358Z,1003.77
2017-08-04T07:37:03.609Z,1003.84
2017-08-04T07:38:05.000Z,1003.83
2017-08-04T07:39:06.282Z,1003.93
2017-08-04T07:40:07.537Z,1003.77
2017-08-04T07:41:08.787Z,1003.83
2017-08-04T07:42:10.034Z,1003.91
2017-08-04T07:43:11.371Z,1003.78
2017-08-04T07:44:12.664Z,1003.98
2017-08-04T07:45:13.911Z,1003.79
2017-08-04T07:46:15.153Z,1003.84
2017-08-04T07:47:16.403Z,1003.98
2017-08-04T07:48:17.648Z,1003.96
2017-08-04T07:49:18.889Z,1003.84
2017-08-04T07:50:20.140Z,1003.87
2017-08-04T07:51:21.437Z,1003.9
2017-08-04T07:52:22.676Z,1003.78
2017-08-04T07:53:23.912Z,1003.8
2017-08-04T07:54:25.163Z,1003.94
2017-08-04T07:55:26.415Z,1003.74
2017-08-04T07:56:27.667Z,1003.69
2017-08-04T07:57:28.934Z,1003.73
2017-08-04T07:58:30.193Z,1003.67
2017-08-04T07:59:31.440Z,1003.72
2017-08-04T08:00:32.699Z,1003.79
2017-08-04T08:01:33.969Z,1003.86
2017-08-04T08:02:35.271Z,1003.88
2017-08-04T08:03:36.537Z,1003.78
2017-08-04T08:04:37.777Z,1003.77
2017-08-04T08:05:39.038Z,1003.66
2017-08-04T08:06:40.265Z,1003.71
2017-08-04T08:07:41.546Z,1003.84
2017-08-04T08:08:42.843Z,1003.84
2017-08-04T08:09:44.088Z,1003.73
2017-08-04T08:10:45.359Z,1003.87
2017-08-04T08:11:46.606Z,1003.65
2017-08-04T08:12:47.839Z,1004.18
2017-08-04T08:13:49.095Z,1003.76
2017-08-04T08:14:50.343Z,1003.77
2017-08-04T08:15:51.656Z,1004.59
2017-08-04T08:16:53.067Z,1003.63
2017-08-04T08:17:54.316Z,1005
2017-08-04T08:18:55.565Z,1004.81
2017-08-04T08:19:56.804Z,1004.82
2017-08-04T08:20:58.049Z,1004.66
2017-08-04T08:21:59.300Z,1004.64
2017-08-04T08:23:00.559Z,1003.54
2017-08-04T08:24:01.815Z,1003.7
2017-08-04T08:25:03.077Z,1004.93
2017-08-04T08:26:04.350Z,1004.34
2017-08-04T08:27:05.587Z,1004.76
2017-08-04T08:28:06.864Z,1003.77
2017-08-04T08:29:08.217Z,1003.67
2017-08-04T08:30:09.464Z,1003.69
2017-08-04T08:31:10.751Z,1003.58
2017-08-04T08:32:11.981Z,1003.84
2017-08-04T08:33:13.233Z,1004.44
2017-08-04T08:34:14.535Z,1003.72
2017-08-04T08:35:15.778Z,1003.69
2017-08-04T08:36:17.048Z,1003.67
2017-08-04T08:37:18.328Z,1003.56
2017-08-04T08:38:19.545Z,1003.75
2017-08-04T08:39:20.965Z,1003.93
2017-08-04T08:40:22.123Z,1003.84
2017-08-04T08:41:23.477Z,1003.96
2017-08-04T08:42:24.803Z,1003.97
2017-08-04T08:43:26.040Z,1003.94
2017-08-04T08:44:27.380Z,1003.76
2017-08-04T08:45:28.634Z,1003.62
2017-08-04T08:46:29.897Z,1003.76
2017-08-04T08:47:31.203Z,1003.7
2017-08-04T08:48:32.452Z,1003.66
2017-08-04T08:49:33.690Z,1003.55
2017-08-04T08:50:34.959Z,1003.63
2017-08-04T08:51:36.213Z,1003.8
2017-08-04T08:52:37.555Z,1003.95
2017-08-04T08:53:38.820Z,1003.78
2017-08-04T08:54:40.049Z,1003.94
2017-08-04T08:55:41.294Z,1004.08
2017-08-04T08:56:42.558Z,1004.39
2017-08-04T08:57:43.811Z,1004.52
2017-08-04T08:58:45.151Z,1003.84
2017-08-04T08:59:46.412Z,1003.85
2017-08-04T09:00:47.651Z,1003.8
2017-08-04T09:01:48.898Z,1003.87
2017-08-04T09:02:50.153Z,1003.86
2017-08-04T09:03:51.486Z,1003.82
2017-08-04T09:04:52.765Z,1003.84
2017-08-04T09:05:54.007Z,1003.81
2017-08-04T09:06:55.256Z,1003.88
2017-08-04T09:07:56.507Z,1003.76
2017-08-04T09:08:57.832Z,1003.8
2017-08-04T09:09:59.151Z,1003.85
2017-08-04T09:11:00.508Z,1004.26
2017-08-04T09:12:01.769Z,1004.02
2017-08-04T09:13:02.996Z,1003.94
2017-08-04T09:14:04.239Z,1004.37
2017-08-04T09:15:05.516Z,1004.06
2017-08-04T09:16:06.785Z,1004.33
2017-08-04T09:17:08.034Z,1004.32
2017-08-04T09:18:09.283Z,1004.61
2017-08-04T09:19:10.526Z,1004.74
2017-08-04T09:20:11.771Z,1004.44
2017-08-04T09:21:13.026Z,1003.88
2017-08-04T09:22:14.269Z,1003.99
2017-08-04T09:23:15.518Z,1003.93
2017-08-04T09:24:16.800Z,1003.84
2017-08-04T09:25:18.048Z,1003.8
2017-08-04T09:26:19.296Z,1003.76
2017-08-04T09:27:20.545Z,1003.7
2017-08-04T09:28:21.793Z,1003.75
2017-08-04T09:29:23.157Z,1003.69
2017-08-04T09:30:24.472Z,1003.71
2017-08-04T09:31:25.715Z,1003.83
2017-08-04T09:32:26.961Z,1005.74
2017-08-04T09:33:28.206Z,1003.9
2017-08-04T09:34:29.461Z,1003.89
2017-08-04T09:35:30.808Z,1004.05
2017-08-04T09:36:32.078Z,1004.36
2017-08-04T09:37:33.316Z,1003.86
2017-08-04T09:38:34.574Z,1004.02
2017-08-04T09:39:35.866Z,1003.9
2017-08-04T09:40:37.123Z,1003.81
2017-08-04T09:41:38.484Z,1003.93
2017-08-04T09:42:39.733Z,1004.44
2017-08-04T09:43:41.007Z,1004.03
2017-08-04T09:44:42.222Z,1003.97
2017-08-04T09:45:43.503Z,1003.95
2017-08-04T09:46:44.780Z,1003.98
2017-08-04T09:47:46.008Z,1004
2017-08-04T09:48:47.288Z,1003.84
2017-08-04T09:49:48.541Z,1003.82
2017-08-04T09:50:49.776Z,1003.85
2017-08-04T09:51:51.014Z,1003.81
2017-08-04T09:52:52.260Z,1003.75
2017-08-04T09:53:53.497Z,1003.75
2017-08-04T09:54:54.781Z,1003.76
2017-08-04T09:55:56.043Z,1003.88
2017-08-04T09:56:57.272Z,1003.87
2017-08-04T09:57:58.519Z,1003.88
2017-08-04T09:58:59.772Z,1003.8
2017-08-04T10:00:01.029Z,1003.87
2017-08-04T10:01:02.417Z,1003.8
2017-08-04T10:02:03.675Z,1003.81
2017-08-04T10:03:04.926Z,1003.79
2017-08-04T10:04:06.176Z,1003.81
2017-08-04T10:05:07.433Z,1003.88
2017-08-04T10:06:08.676Z,1003.79
2017-08-04T10:07:09.912Z,1003.83
2017-08-04T10:08:11.269Z,1003.85
2017-08-04T10:09:12.522Z,1003.88
2017-08-04T10:10:13.769Z,1003.88
2017-08-04T10:11:15.056Z,1003.8
2017-08-04T10:12:16.299Z,1003.83
2017-08-04T10:13:17.568Z,1003.81
2017-08-04T10:14:18.827Z,1003.82
2017-08-04T10:15:20.090Z,1003.83
2017-08-04T10:16:21.341Z,1003.85
2017-08-04T10:17:22.582Z,1003.81
2017-08-04T10:18:23.929Z,1003.98
2017-08-04T10:19:25.310Z,1003.93
2017-08-04T10:20:26.579Z,1004.01
2017-08-04T10:21:27.818Z,1004.01
2017-08-04T10:22:29.060Z,1003.94
2017-08-04T10:23:30.313Z,1003.93
2017-08-04T10:24:31.540Z,1003.92
2017-08-04T10:25:32.900Z,1003.84
2017-08-04T10:26:34.146Z,1003.93
2017-08-04T10:27:35.387Z,1004.11
2017-08-04T10:28:36.633Z,1004.08
2017-08-04T10:29:38.141Z,1004.05
2017-08-04T10:30:39.409Z,1003.99
2017-08-04T10:31:40.639Z,1003.98
2017-08-04T10:32:41.880Z,1004.05
2017-08-04T10:33:43.139Z,1004.04
2017-08-04T10:34:44.388Z,1004.13
2017-08-04T10:35:45.646Z,1004.02
2017-08-04T10:36:46.944Z,1004.08
2017-08-04T10:37:48.287Z,1004.17
2017-08-04T10:38:49.533Z,1004.16
2017-08-04T10:39:50.792Z,1004.08
2017-08-04T10:40:52.016Z,1004.16
2017-08-04T10:41:53.384Z,1004.28
2017-08-04T10:42:54.700Z,1004.32
2017-08-04T10:43:55.960Z,1004.35
2017-08-04T10:44:57.200Z,1004.35
2017-08-04T10:45:58.449Z,1004.23
2017-08-04T10:46:59.812Z,1004.16
2017-08-04T10:48:01.099Z,1004.23
2017-08-04T10:49:02.465Z,1004.16
2017-08-04T10:50:03.695Z,1004.26
2017-08-04T10:51:04.967Z,1004.21
2017-08-04T10:52:06.195Z,1004.18
2017-08-04T10:53:07.474Z,1004.16
2017-08-04T10:54:08.756Z,1004.27
2017-08-04T10:55:10.002Z,1004.29
2017-08-04T10:56:11.265Z,1004.25
2017-08-04T10:57:12.529Z,1004.18
2017-08-04T10:58:13.768Z,1004.15
2017-08-04T10:59:15.033Z,1004.14
2017-08-04T11:00:16.272Z,1004.12
2017-08-04T11:01:17.611Z,1004.07
2017-08-04T11:02:18.848Z,1004.16
2017-08-04T11:03:20.108Z,1004.11
2017-08-04T11:04:21.363Z,1004.13
2017-08-04T11:05:22.597Z,1004.12
2017-08-04T11:06:23.874Z,1004.3
2017-08-04T11:07:25.160Z,1004.28
2017-08-04T11:08:26.404Z,1004.24
2017-08-04T11:09:27.649Z,1004.24
2017-08-04T11:10:28.895Z,1004.22
2017-08-04T11:11:30.154Z,1004.26
2017-08-04T11:12:31.418Z,1004.25
2017-08-04T11:13:32.762Z,1004.18
2017-08-04T11:14:33.984Z,1004.15
2017-08-04T11:15:35.239Z,1004.05
2017-08-04T11:16:36.472Z,1003.99
2017-08-04T11:17:37.724Z,1004.02
2017-08-04T11:18:39.006Z,1004.13
2017-08-04T11:19:40.255Z,1004.03
2017-08-04T11:20:41.566Z,1003.98
2017-08-04T11:21:42.803Z,1004.15
2017-08-04T11:22:44.040Z,1004.19
2017-08-04T11:23:45.275Z,1004.13
2017-08-04T11:24:46.530Z,1004.22
2017-08-04T11:25:47.827Z,1004.34
2017-08-04T11:26:49.108Z,1004.33
2017-08-04T11:27:50.356Z,1004.25
2017-08-04T11:28:51.596Z,1004.37
2017-08-04T11:29:52.847Z,1004.31
2017-08-04T11:30:54.079Z,1004.16
2017-08-04T11:31:55.345Z,1004.33
2017-08-04T11:32:56.683Z,1004.24
2017-08-04T11:33:57.949Z,1004.29
2017-08-04T11:34:59.176Z,1004.36
2017-08-04T11:36:00.416Z,1004.21
2017-08-04T11:37:01.680Z,1004.19
2017-08-04T11:38:03.000Z,1004.14
2017-08-04T11:39:04.495Z,1004.18
2017-08-04T11:40:05.736Z,1004.23
2017-08-04T11:41:06.983Z,1004.23
2017-08-04T11:42:08.214Z,1004.19
2017-08-04T11:43:09.561Z,1004.29
2017-08-04T11:44:11.054Z,1004.35
2017-08-04T11:45:12.305Z,1004.22
2017-08-04T11:46:13.564Z,1004.24
2017-08-04T11:47:14.799Z,1004.24
2017-08-04T11:48:16.046Z,1004.18
2017-08-04T11:49:17.397Z,1004.23
2017-08-04T11:50:18.684Z,1004.29
2017-08-04T11:51:19.927Z,1004.4
2017-08-04T11:52:21.172Z,1004.24
2017-08-04T11:53:22.435Z,1004.29
2017-08-04T11:54:23.692Z,1004.24
2017-08-04T11:55:24.970Z,1004.21
2017-08-04T11:56:26.220Z,1004.26
2017-08-04T11:57:27.563Z,1004.25
2017-08-04T11:58:28.925Z,1004.23
2017-08-04T11:59:30.157Z,1004.24
2017-08-04T12:00:31.450Z,1004.26
2017-08-04T12:01:32.706Z,1004.22
2017-08-04T12:02:33.942Z,1004.23
2017-08-04T12:03:35.193Z,1004.19
2017-08-04T12:04:36.454Z,1004.16
2017-08-04T12:05:37.687Z,1004.2
2017-08-04T12:06:38.924Z,1004.26
2017-08-04T12:07:40.164Z,1004.29
2017-08-04T12:08:41.424Z,1004.23
2017-08-04T12:09:42.684Z,1004.28
2017-08-04T12:10:43.921Z,1004.38
2017-08-04T12:11:45.163Z,1004.31
2017-08-04T12:12:46.424Z,1004.22
2017-08-04T12:13:47.755Z,1004.47
2017-08-04T12:14:49.089Z,1004.38
2017-08-04T12:15:50.337Z,1004.23
2017-08-04T12:16:51.571Z,1004.32
2017-08-04T12:17:52.839Z,1004.44
2017-08-04T12:18:54.073Z,1004.42
2017-08-04T12:19:55.373Z,1004.35
2017-08-04T12:20:56.704Z,1004.38
2017-08-04T12:21:57.943Z,1004.43
2017-08-04T12:22:59.195Z,1004.39
2017-08-04T12:24:00.435Z,1004.4
2017-08-04T12:25:01.689Z,1004.38